createdAt,value
2022-11-29T03:26:13.529Z,110
2022-11-29T03:28:54.855Z,105
2022-11-29T03:30:54.996Z,110
2022-11-29T03:33:54.860Z,116
2022-11-29T03:35:54.900Z,122
2022-11-29T03:37:54.941Z,113
2022-11-29T03:40:54.851Z,125
2022-11-29T03:42:54.874Z,123
2022-11-29T03:45:54.879Z,126
2022-11-29T03:47:54.871Z,123
2022-11-29T03:50:54.859Z,125
2022-11-29T03:52:54.847Z,133
2022-11-29T03:54:54.940Z,132
2022-11-29T03:57:54.868Z,121
2022-11-29T03:59:54.874Z,118
2022-11-29T04:02:54.922Z,118
2022-11-29T04:05:54.854Z,123
2022-11-29T04:08:54.854Z,121
2022-11-29T04:10:55.199Z,114
2022-11-29T04:13:54.865Z,121
2022-11-29T04:16:54.843Z,122
2022-11-29T04:18:54.890Z,114
2022-11-29T04:21:54.837Z,115
2022-11-29T04:23:54.852Z,125
2022-11-29T04:26:54.833Z,117
2022-11-29T04:28:54.853Z,104
2022-11-29T04:31:54.824Z,108
2022-11-29T04:33:54.837Z,114
2022-11-29T04:35:54.834Z,97
2022-11-29T04:38:54.854Z,99
2022-11-29T04:40:54.839Z,110
2022-11-29T04:43:54.852Z,109
2022-11-29T04:45:54.875Z,101
2022-11-29T04:48:54.952Z,96
2022-11-29T04:51:54.846Z,95
2022-11-29T04:53:54.847Z,98
2022-11-29T04:56:54.839Z,98
2022-11-29T04:58:54.868Z,95
2022-11-29T05:01:54.933Z,89
2022-11-29T05:04:54.841Z,98
2022-11-29T05:07:54.845Z,94
2022-11-29T05:10:54.836Z,95
2022-11-29T05:13:54.856Z,93
2022-11-29T05:16:54.863Z,93
2022-11-29T05:19:54.898Z,89
2022-11-29T05:22:54.814Z,95
2022-11-29T05:24:54.860Z,97
2022-11-29T05:27:54.846Z,95
2022-11-29T05:30:54.909Z,97
2022-11-29T05:33:54.847Z,99
2022-11-29T05:36:54.879Z,97
2022-11-29T05:39:54.860Z,106
2022-11-29T05:41:54.830Z,97
2022-11-29T05:44:54.867Z,101
2022-11-29T05:47:54.832Z,104
2022-11-29T05:50:54.817Z,101
2022-11-29T05:53:54.843Z,111
2022-11-29T05:55:54.847Z,99
2022-11-29T05:58:54.859Z,108
2022-11-29T06:01:54.838Z,99
2022-11-29T06:03:54.849Z,106
2022-11-29T06:05:54.894Z,106
2022-11-29T06:08:54.849Z,103
2022-11-29T06:10:54.883Z,103
2022-11-29T06:13:54.853Z,104
2022-11-29T06:15:54.979Z,105
2022-11-29T06:18:54.853Z,100
2022-11-29T06:22:54.912Z,100
2022-11-29T06:25:57.283Z,103
2022-11-29T06:28:54.856Z,109
2022-11-29T06:30:54.858Z,105
2022-11-29T06:32:54.867Z,107
2022-11-29T06:35:54.863Z,112
2022-11-29T06:37:54.855Z,108
2022-11-29T06:40:58.676Z,113
2022-11-29T06:43:54.892Z,114
2022-11-29T06:45:54.852Z,111
2022-11-29T06:48:59.138Z,125
2022-11-29T06:51:54.855Z,119
2022-11-29T06:54:54.859Z,114
2022-11-29T06:57:54.853Z,113
2022-11-29T06:59:54.849Z,109
2022-11-29T07:02:54.857Z,110
2022-11-29T07:04:54.881Z,110
2022-11-29T07:07:54.872Z,116
2022-11-29T07:10:01.421Z,117
2022-11-29T07:12:54.846Z,121
2022-11-29T07:14:54.843Z,121
2022-11-29T07:17:54.847Z,113
2022-11-29T07:19:54.836Z,110
2022-11-29T07:22:54.868Z,101
2022-11-29T07:25:54.832Z,101
2022-11-29T07:28:54.827Z,94
2022-11-29T07:30:54.849Z,92
2022-11-29T07:33:54.858Z,95
2022-11-29T07:36:54.838Z,111
2022-11-29T07:39:54.857Z,115
2022-11-29T07:42:54.852Z,107
2022-11-29T07:45:54.849Z,100
2022-11-29T07:48:54.864Z,80
2022-11-29T07:50:54.880Z,77
2022-11-29T07:53:54.839Z,90
2022-11-29T07:55:54.834Z,78
2022-11-29T07:57:54.874Z,78
2022-11-29T08:00:54.920Z,66
2022-11-29T08:02:54.855Z,74
2022-11-29T08:05:54.837Z,71
2022-11-29T08:08:54.865Z,70
2022-11-29T08:10:54.880Z,63
2022-11-29T08:13:54.844Z,68
2022-11-29T08:15:55.023Z,60
2022-11-29T08:18:54.863Z,62
2022-11-29T08:21:54.869Z,60
2022-11-29T08:24:54.864Z,61
2022-11-29T08:27:54.854Z,55
2022-11-29T08:33:54.873Z,58
2022-11-29T08:36:54.879Z,54
2022-11-29T08:39:54.863Z,68
2022-11-29T08:41:54.868Z,54
2022-11-29T08:44:54.891Z,52
2022-11-29T08:46:54.940Z,57
2022-11-29T08:49:54.862Z,59
2022-11-29T08:52:54.853Z,60
2022-11-29T08:54:58.840Z,57
2022-11-29T08:57:54.869Z,62
2022-11-29T08:59:54.890Z,66
2022-11-29T09:02:54.934Z,66
2022-11-29T09:05:54.880Z,54
2022-11-29T09:07:54.910Z,59
2022-11-29T09:10:54.878Z,57
2022-11-29T09:12:54.912Z,53
2022-11-29T09:16:54.919Z,50
2022-11-29T09:19:54.951Z,50
2022-11-29T09:22:54.879Z,43
2022-11-29T09:24:54.874Z,46
2022-11-29T09:27:54.905Z,46
2022-11-29T09:29:54.889Z,48
2022-11-29T09:32:54.891Z,52
2022-11-29T09:35:54.871Z,53
2022-11-29T09:37:54.891Z,60
2022-11-29T09:40:54.872Z,56
2022-11-29T09:42:54.952Z,43
2022-11-29T09:45:54.941Z,51
2022-11-29T09:48:54.862Z,48
2022-11-29T09:50:54.912Z,50
2022-11-29T09:53:54.893Z,52
2022-11-29T09:56:54.861Z,47
2022-11-29T09:59:54.871Z,54
2022-11-29T10:02:54.928Z,45
2022-11-29T10:05:54.881Z,45
2022-11-29T10:07:54.950Z,44
2022-11-29T10:10:54.884Z,44
2022-11-29T10:12:54.939Z,44
2022-11-29T10:15:54.874Z,44
2022-11-29T10:17:54.890Z,45
2022-11-29T10:20:54.856Z,43
2022-11-29T10:23:54.848Z,46
2022-11-29T10:25:54.868Z,42
2022-11-29T10:28:54.853Z,47
2022-11-29T10:30:55.079Z,46
2022-11-29T10:33:54.876Z,51
2022-11-29T10:36:54.881Z,49
2022-11-29T10:38:54.864Z,47
2022-11-29T10:41:54.834Z,48
2022-11-29T10:43:54.874Z,47
2022-11-29T10:46:54.876Z,51
2022-11-29T10:49:54.872Z,53
2022-11-29T10:52:58.638Z,50
2022-11-29T10:55:54.834Z,57
2022-11-29T10:57:54.873Z,50
2022-11-29T11:00:54.907Z,53
2022-11-29T11:02:54.856Z,51
2022-11-29T11:05:54.918Z,53
2022-11-29T11:08:54.878Z,53
2022-11-29T11:11:54.851Z,61
2022-11-29T11:13:54.854Z,70
2022-11-29T11:16:54.884Z,60
2022-11-29T11:19:01.431Z,64
2022-11-29T11:21:01.436Z,64
2022-11-29T11:23:54.855Z,77
2022-11-29T11:26:54.880Z,83
2022-11-29T11:28:54.866Z,90
2022-11-29T11:31:54.854Z,87
2022-11-29T11:33:54.847Z,94
2022-11-29T11:36:54.868Z,95
2022-11-29T11:39:54.869Z,97
2022-11-29T11:43:54.876Z,98
2022-11-29T11:46:54.860Z,100
2022-11-29T11:48:54.874Z,98
2022-11-29T11:51:54.927Z,91
2022-11-29T11:53:54.976Z,96
2022-11-29T11:56:54.894Z,95
2022-11-29T11:59:01.456Z,92
2022-11-29T12:01:54.888Z,95
2022-11-29T12:04:54.889Z,84
2022-11-29T12:08:08.039Z,95
2022-11-29T12:09:54.907Z,106
2022-11-29T12:11:54.884Z,92
2022-11-29T12:14:54.899Z,102
2022-11-29T12:17:54.883Z,101
2022-11-29T12:20:54.972Z,116
2022-11-29T12:23:54.864Z,108
2022-11-29T12:25:55.090Z,106
2022-11-29T12:28:54.880Z,112
2022-11-29T12:30:54.918Z,118
2022-11-29T12:33:54.840Z,112
2022-11-29T12:35:54.862Z,110
2022-11-29T12:38:54.871Z,109
2022-11-29T12:41:54.904Z,110
2022-11-29T12:44:54.838Z,93
2022-11-29T12:47:07.275Z,97
2022-11-29T12:49:54.831Z,89
2022-11-29T12:51:54.855Z,93
2022-11-29T12:53:54.868Z,90
2022-11-29T12:56:54.893Z,93
2022-11-29T12:58:54.938Z,84
2022-11-29T13:01:54.925Z,84
2022-11-29T13:04:59.509Z,90
2022-11-29T13:06:54.854Z,91
2022-11-29T13:08:54.883Z,89
2022-11-29T13:11:54.869Z,92
2022-11-29T13:14:54.849Z,85
2022-11-29T13:17:54.842Z,90
2022-11-29T13:20:54.853Z,89
2022-11-29T13:22:54.894Z,93
2022-11-29T13:25:54.857Z,84
2022-11-29T13:27:54.881Z,94
2022-11-29T13:30:54.958Z,84
2022-11-29T13:33:54.889Z,81
2022-11-29T13:35:54.860Z,91
2022-11-29T13:38:54.871Z,98
2022-11-29T13:40:54.851Z,95
2022-11-29T13:43:54.872Z,104
2022-11-29T13:46:54.897Z,100
2022-11-29T13:48:54.875Z,103
2022-11-29T13:51:54.878Z,91
2022-11-29T13:55:01.438Z,105
2022-11-29T13:58:15.280Z,96
2022-11-29T13:59:54.876Z,100
2022-11-29T14:01:54.930Z,95
2022-11-29T14:04:54.886Z,92
2022-11-29T14:09:18.176Z,98
2022-11-29T14:11:54.874Z,89
2022-11-29T14:13:54.894Z,98
2022-11-29T14:16:54.845Z,95
2022-11-29T14:18:54.890Z,95
2022-11-29T14:21:54.884Z,95
2022-11-29T14:23:54.889Z,98
2022-11-29T14:25:54.889Z,93
2022-11-29T14:28:54.890Z,94
2022-11-29T14:31:54.884Z,92
2022-11-29T14:33:54.887Z,90
2022-11-29T14:36:54.905Z,98
2022-11-29T14:39:54.869Z,90
2022-11-29T14:41:54.872Z,107
2022-11-29T14:44:54.851Z,87
2022-11-29T14:46:54.868Z,86
2022-11-29T14:48:54.867Z,101
2022-11-29T14:50:54.855Z,97
2022-11-29T14:52:54.858Z,89
2022-11-29T14:54:55.395Z,90
2022-11-29T14:57:54.889Z,85
2022-11-29T15:00:54.947Z,83
2022-11-29T15:03:54.906Z,84
2022-11-29T15:06:54.911Z,83
2022-11-29T15:09:54.834Z,73
2022-11-29T15:11:54.864Z,69
2022-11-29T15:13:54.872Z,77
2022-11-29T15:17:55.141Z,79
2022-11-29T15:20:54.889Z,81
2022-11-29T15:22:54.881Z,83
2022-11-29T15:25:54.891Z,73
2022-11-29T15:28:54.883Z,89
2022-11-29T15:32:54.837Z,80
2022-11-29T15:34:54.867Z,80
2022-11-29T15:36:54.879Z,80
2022-11-29T15:39:54.894Z,77
2022-11-29T15:42:54.868Z,77
2022-11-29T15:44:54.861Z,81
2022-11-29T15:47:54.863Z,81
2022-11-29T15:49:54.890Z,83
2022-11-29T15:52:54.886Z,84
2022-11-29T15:54:54.894Z,85
2022-11-29T15:57:54.901Z,100
2022-11-29T15:59:54.909Z,86
2022-11-29T16:02:54.887Z,92
2022-11-29T16:04:54.885Z,92
2022-11-29T16:07:54.970Z,89
2022-11-29T16:09:54.930Z,77
2022-11-29T16:12:55.899Z,85
2022-11-29T16:14:54.920Z,76
2022-11-29T16:17:54.861Z,89
2022-11-29T16:20:54.885Z,88
2022-11-29T16:23:54.883Z,96
2022-11-29T16:26:54.866Z,87
2022-11-29T16:28:54.886Z,93
2022-11-29T16:30:54.911Z,89
2022-11-29T16:33:54.895Z,91
2022-11-29T16:35:54.899Z,89
2022-11-29T16:37:54.885Z,90
2022-11-29T16:40:54.882Z,88
2022-11-29T16:42:54.895Z,94
2022-11-29T16:45:54.932Z,87
2022-11-29T16:47:54.910Z,88
2022-11-29T16:50:54.898Z,95
2022-11-29T16:52:56.731Z,97
2022-11-29T16:55:54.897Z,105
2022-11-29T16:59:17.554Z,99
2022-11-29T17:01:54.953Z,118
2022-11-29T17:03:54.905Z,120
2022-11-29T17:06:54.901Z,116
2022-11-29T17:11:55.155Z,121
2022-11-29T17:14:54.923Z,123
2022-11-29T17:16:54.912Z,123
2022-11-29T17:18:54.967Z,123
2022-11-29T17:21:54.878Z,118
2022-11-29T17:23:54.914Z,116
2022-11-29T17:26:54.922Z,116
2022-11-29T17:29:54.872Z,112
2022-11-29T17:31:54.920Z,112
2022-11-29T17:34:54.925Z,113
2022-11-29T17:37:54.892Z,108
2022-11-29T17:40:54.881Z,113
2022-11-29T17:43:54.875Z,121
2022-11-29T17:46:54.879Z,111
2022-11-29T17:48:54.882Z,104
2022-11-29T17:50:54.950Z,120
2022-11-29T17:53:54.904Z,114
2022-11-29T17:55:54.904Z,118
2022-11-29T17:58:54.902Z,115
2022-11-29T18:00:55.079Z,113
2022-11-29T18:02:54.865Z,113
2022-11-29T18:04:54.929Z,115
2022-11-29T18:07:54.937Z,113
2022-11-29T18:10:54.889Z,112
2022-11-29T18:13:54.891Z,107
2022-11-29T18:15:54.893Z,114
2022-11-29T18:18:54.890Z,117
2022-11-29T18:20:54.895Z,114
2022-11-29T18:23:54.956Z,110
2022-11-29T18:26:54.889Z,114
2022-11-29T18:28:54.916Z,111
2022-11-29T18:30:54.954Z,107
2022-11-29T18:32:54.896Z,112
2022-11-29T18:35:54.898Z,112
2022-11-29T18:38:54.903Z,118
2022-11-29T18:41:54.864Z,113
2022-11-29T18:43:54.883Z,126
2022-11-29T18:45:54.893Z,134
2022-11-29T18:48:54.865Z,134
2022-11-29T18:50:54.856Z,118
2022-11-29T18:53:54.870Z,130
2022-11-29T18:55:54.868Z,125
2022-11-29T18:58:58.137Z,130
2022-11-29T19:00:54.936Z,131
2022-11-29T19:02:54.916Z,124
2022-11-29T19:05:54.887Z,125
2022-11-29T19:07:54.902Z,123
2022-11-29T19:10:54.850Z,140
2022-11-29T19:12:54.878Z,135
2022-11-29T19:15:54.934Z,133
2022-11-29T19:17:54.885Z,126
2022-11-29T19:20:54.892Z,117
2022-11-29T19:23:54.856Z,131
2022-11-29T19:25:54.949Z,122
2022-11-29T19:28:54.881Z,129
2022-11-29T19:31:54.890Z,127
2022-11-29T19:33:54.903Z,131
2022-11-29T19:36:54.882Z,126
2022-11-29T19:38:54.879Z,125
2022-11-29T19:41:54.918Z,134
2022-11-29T19:43:54.870Z,129
2022-11-29T19:45:56.070Z,129
2022-11-29T19:48:54.852Z,130
2022-11-29T19:50:54.879Z,126
2022-11-29T19:53:54.870Z,121
2022-11-29T19:56:54.867Z,114
2022-11-29T19:58:54.862Z,115
2022-11-29T20:00:54.879Z,119
2022-11-29T20:03:54.886Z,127
2022-11-29T20:05:54.869Z,118
2022-11-29T20:08:54.907Z,115
2022-11-29T20:11:54.893Z,107
2022-11-29T20:13:54.900Z,104
2022-11-29T20:15:54.918Z,105
2022-11-29T20:18:54.887Z,86
2022-11-29T20:20:54.911Z,86
2022-11-29T20:23:54.907Z,79
2022-11-29T20:25:54.877Z,81
2022-11-29T20:27:54.872Z,85
2022-11-29T20:29:54.892Z,75
2022-11-29T20:32:54.885Z,83
2022-11-29T20:35:54.896Z,79
2022-11-29T20:38:01.472Z,83
2022-11-29T20:40:58.203Z,79
2022-11-29T20:42:54.905Z,75
2022-11-29T20:45:54.981Z,73
2022-11-29T20:47:55.922Z,68
2022-11-29T20:50:54.874Z,78
2022-11-29T20:52:54.882Z,75
2022-11-29T20:54:54.931Z,86
2022-11-29T20:56:54.908Z,91
2022-11-29T21:00:54.922Z,93
2022-11-29T21:03:54.957Z,102
2022-11-29T21:06:54.930Z,96
2022-11-29T21:09:59.562Z,102
2022-11-29T21:11:54.913Z,112
2022-11-29T21:14:54.890Z,102
2022-11-29T21:16:54.913Z,94
2022-11-29T21:19:54.888Z,93
2022-11-29T21:21:54.893Z,94
2022-11-29T21:23:54.916Z,94
2022-11-29T21:26:54.895Z,102
2022-11-29T21:28:54.895Z,99
2022-11-29T21:31:54.910Z,99
2022-11-29T21:33:54.918Z,104
2022-11-29T21:36:54.892Z,103
2022-11-29T21:38:55.348Z,102
2022-11-29T21:41:54.917Z,97
2022-11-29T21:44:54.866Z,110
2022-11-29T21:46:55.033Z,94
2022-11-29T21:50:01.472Z,91
2022-11-29T21:52:54.892Z,90
2022-11-29T21:54:54.908Z,96
2022-11-29T21:56:54.893Z,94
2022-11-29T21:59:54.931Z,86
2022-11-29T22:02:54.958Z,100
2022-11-29T22:05:54.929Z,97
2022-11-29T22:07:54.973Z,90
2022-11-29T22:10:10.128Z,97
2022-11-29T22:12:19.728Z,95
2022-11-29T22:14:54.968Z,98
2022-11-29T22:17:54.961Z,105
2022-11-29T22:19:54.931Z,92
2022-11-29T22:22:05.259Z,99
2022-11-29T22:24:54.957Z,95
2022-11-29T22:27:54.937Z,101
2022-11-29T22:29:54.940Z,95
2022-11-29T22:31:54.946Z,93
2022-11-29T22:34:54.975Z,100
2022-11-29T22:37:54.964Z,99
2022-11-29T22:39:54.954Z,95
2022-11-29T22:42:54.936Z,94
2022-11-29T22:44:55.023Z,106
2022-11-29T22:47:56.004Z,99
2022-11-29T22:49:54.969Z,100
2022-11-29T22:52:54.969Z,94
2022-11-29T22:54:57.655Z,103
2022-11-29T22:58:05.238Z,111
2022-11-29T23:00:55.015Z,96
2022-11-29T23:03:54.983Z,96
2022-11-29T23:06:54.969Z,105
2022-11-29T23:10:05.245Z,94
2022-11-29T23:12:54.956Z,98
2022-11-29T23:14:56.671Z,99
2022-11-29T23:17:54.976Z,101
2022-11-29T23:20:05.244Z,100
2022-11-29T23:23:56.721Z,107
2022-11-29T23:26:54.983Z,106
2022-11-29T23:29:55.997Z,101
2022-11-29T23:32:54.956Z,105
2022-11-29T23:34:55.996Z,111
2022-11-29T23:36:55.007Z,102
2022-11-29T23:39:54.969Z,102
2022-11-29T23:41:55.003Z,113
2022-11-29T23:44:54.969Z,115
2022-11-29T23:47:54.960Z,117
2022-11-29T23:49:54.979Z,104
2022-11-29T23:52:54.964Z,108
2022-11-29T23:54:54.949Z,99
2022-11-29T23:56:54.960Z,111
2022-11-29T23:58:54.978Z,106
